createdAt,value
2022-10-21T00:04:36.309Z,98872.34
2022-10-21T00:09:42.067Z,98873.16
2022-10-21T00:14:51.587Z,98861.22
2022-10-21T00:19:58.678Z,98859.94
2022-10-21T00:25:03.823Z,98858.16
2022-10-21T00:30:14.759Z,98854.44
2022-10-21T00:35:19.737Z,98862.00
2022-10-21T00:40:24.485Z,98851.94
2022-10-21T00:45:32.973Z,98836.78
2022-10-21T00:50:42.741Z,98845.84
2022-10-21T00:55:52.842Z,98832.06
2022-10-21T01:01:03.155Z,98815.53
2022-10-21T01:06:12.249Z,98800.63
2022-10-21T01:11:20.923Z,98805.69
2022-10-21T01:16:36.785Z,98814.06
2022-10-21T01:21:46.585Z,98778.31
2022-10-21T01:27:11.435Z,98760.47
2022-10-21T01:32:30.729Z,98747.09
2022-10-21T01:37:43.021Z,98733.47
2022-10-21T01:42:55.525Z,98728.25
2022-10-21T01:48:07.372Z,98715.28
2022-10-21T01:53:15.712Z,98722.66
2022-10-21T01:58:23.513Z,98702.78
2022-10-21T02:03:34.309Z,98701.59
2022-10-21T02:08:39.231Z,98674.94
2022-10-21T02:13:48.525Z,98682.28
2022-10-21T02:18:57.443Z,98691.94
2022-10-21T02:24:08.038Z,98695.28
2022-10-21T02:29:13.735Z,98704.16
2022-10-21T02:34:32.769Z,98686.53
2022-10-21T02:39:41.887Z,98683.66
2022-10-21T02:44:46.587Z,98669.41
2022-10-21T02:49:53.919Z,98706.44
2022-10-21T02:54:58.727Z,98687.59
2022-10-21T03:00:03.736Z,98682.59
2022-10-21T03:05:13.116Z,98681.63
2022-10-21T03:10:18.006Z,98699.59
2022-10-21T03:15:22.851Z,98689.19
2022-10-21T03:20:30.303Z,98680.72
2022-10-21T03:25:37.330Z,98682.00
2022-10-21T03:30:42.208Z,98653.47
2022-10-21T03:35:49.556Z,98662.72
2022-10-21T03:40:54.428Z,98668.72
2022-10-21T03:45:59.183Z,98659.06
2022-10-21T03:51:06.778Z,98653.16
2022-10-21T03:56:11.673Z,98649.63
2022-10-21T04:01:16.754Z,98640.88
2022-10-21T04:06:24.192Z,98650.41
2022-10-21T04:11:28.962Z,98631.53
2022-10-21T04:16:34.346Z,98622.47
2022-10-21T04:21:41.813Z,98604.38
2022-10-21T04:26:46.894Z,98617.06
2022-10-21T04:31:51.852Z,98621.69
2022-10-21T04:37:01.211Z,98638.22
2022-10-21T04:42:08.918Z,98585.28
2022-10-21T04:47:13.825Z,98612.56
2022-10-21T04:52:21.242Z,98608.13
2022-10-21T04:57:26.147Z,98601.84
2022-10-21T05:02:30.913Z,98587.56
2022-10-21T05:07:38.402Z,98580.00
2022-10-21T05:12:43.201Z,98580.00
2022-10-21T05:17:48.099Z,98578.44
2022-10-21T05:22:55.513Z,98577.44
2022-10-21T05:28:00.613Z,98571.53
2022-10-21T05:33:05.638Z,98560.72
2022-10-21T05:38:13.163Z,98558.66
2022-10-21T05:43:18.333Z,98539.09
2022-10-21T05:48:23.358Z,98546.28
2022-10-21T05:53:30.875Z,98540.66
2022-10-21T05:58:37.354Z,98548.75
2022-10-21T06:03:42.195Z,98551.97
2022-10-21T06:08:49.915Z,98559.25
2022-10-21T06:13:54.941Z,98557.38
2022-10-21T06:18:59.724Z,98573.13
2022-10-21T06:24:07.365Z,98570.16
2022-10-21T06:29:12.293Z,98557.28
2022-10-21T06:39:25.215Z,98569.34
2022-10-21T06:44:30.190Z,98563.66
2022-10-21T06:49:35.095Z,98554.88
2022-10-21T06:54:42.977Z,98573.94
2022-10-21T06:59:49.508Z,98565.47
2022-10-21T07:04:54.842Z,98577.56
2022-10-21T07:10:02.376Z,98574.50
2022-10-21T07:15:08.289Z,98578.25
2022-10-21T07:20:13.990Z,98577.25
2022-10-21T07:25:21.660Z,98575.63
2022-10-21T07:30:26.579Z,98569.16
2022-10-21T07:35:31.658Z,98559.69
2022-10-21T07:40:42.519Z,98545.41
2022-10-21T07:45:47.975Z,98545.13
2022-10-21T07:50:53.886Z,98541.34
2022-10-21T07:56:10.829Z,98518.28
2022-10-21T08:01:16.703Z,98547.16
2022-10-21T08:06:21.626Z,98546.97
2022-10-21T08:11:31.143Z,98541.19
2022-10-21T08:16:36.055Z,98541.00
2022-10-21T08:21:44.301Z,98531.59
2022-10-21T08:26:52.310Z,98534.03
2022-10-21T08:31:57.539Z,98525.72
2022-10-21T08:37:02.689Z,98515.69
2022-10-21T08:42:19.923Z,98518.41
2022-10-21T08:47:36.016Z,98523.59
2022-10-21T08:52:45.144Z,98497.94
2022-10-21T08:57:58.040Z,98494.69
2022-10-21T09:03:13.895Z,98473.59
2022-10-21T09:08:29.868Z,98465.19
2022-10-21T09:13:59.425Z,98466.59
2022-10-21T09:19:14.251Z,98460.19
2022-10-21T09:24:22.330Z,98463.88
2022-10-21T09:29:33.951Z,98464.06
2022-10-21T09:34:48.379Z,98459.47
2022-10-21T09:40:00.729Z,98454.41
2022-10-21T09:45:17.814Z,98455.28
2022-10-21T09:50:23.163Z,98466.25
2022-10-21T09:55:30.220Z,98449.59
2022-10-21T10:00:50.249Z,98446.16
2022-10-21T10:05:55.771Z,98450.16
2022-10-21T10:11:15.389Z,98458.88
2022-10-21T10:16:30.187Z,98448.91
2022-10-21T10:21:35.041Z,98447.94
2022-10-21T10:26:42.522Z,98449.06
2022-10-21T10:31:53.613Z,98443.16
2022-10-21T10:37:04.834Z,98437.19
2022-10-21T10:42:10.990Z,98440.09
2022-10-21T10:47:32.188Z,98445.53
2022-10-21T10:52:37.428Z,98459.59
2022-10-21T10:57:58.813Z,98453.78
2022-10-21T11:03:26.304Z,98444.44
2022-10-21T11:08:39.874Z,98446.38
2022-10-21T11:13:47.178Z,98453.88
2022-10-21T11:19:04.510Z,98445.41
2022-10-21T11:24:42.477Z,98439.25
2022-10-21T11:30:12.164Z,98442.19
2022-10-21T11:35:35.504Z,98437.75
2022-10-21T11:40:44.665Z,98425.31
2022-10-21T11:46:01.126Z,98419.81
2022-10-21T11:51:18.504Z,98407.19
2022-10-21T11:56:38.622Z,98406.75
2022-10-21T12:01:50.643Z,98413.34
2022-10-21T12:07:15.555Z,98410.06
2022-10-21T12:12:25.899Z,98411.41
2022-10-21T12:17:35.110Z,98402.03
2022-10-21T12:28:15.128Z,98428.03
2022-10-21T12:33:28.029Z,98431.03
2022-10-21T12:38:48.461Z,98434.81
2022-10-21T12:44:05.458Z,98412.59
2022-10-21T12:49:23.239Z,98435.03
2022-10-21T12:54:32.150Z,98422.84
2022-10-21T12:59:42.369Z,98424.66
2022-10-21T13:04:50.618Z,98433.41
2022-10-21T13:10:25.120Z,98437.59
2022-10-21T13:15:50.356Z,98433.00
2022-10-21T13:21:02.453Z,98438.25
2022-10-21T13:26:18.881Z,98447.47
2022-10-21T13:31:26.477Z,98453.13
2022-10-21T13:36:40.141Z,98456.56
2022-10-21T13:41:47.223Z,98442.13
2022-10-21T13:46:54.776Z,98436.78
2022-10-21T13:52:03.177Z,98451.53
2022-10-21T13:57:10.033Z,98437.72
2022-10-21T14:02:30.655Z,98447.09
2022-10-21T14:07:35.881Z,98442.91
2022-10-21T14:12:47.902Z,98449.44
2022-10-21T14:18:02.052Z,98421.53
2022-10-21T14:23:08.659Z,98435.63
2022-10-21T14:28:14.936Z,98432.50
2022-10-21T14:33:29.767Z,98429.38
2022-10-21T14:38:43.284Z,98424.66
2022-10-21T14:43:50.468Z,98420.53
2022-10-21T14:49:03.785Z,98418.66
2022-10-21T14:54:10.402Z,98433.88
2022-10-21T14:59:22.904Z,98445.00
2022-10-21T15:04:52.268Z,98444.31
2022-10-21T15:10:17.848Z,98431.22
2022-10-21T15:15:54.139Z,98458.50
2022-10-21T15:21:04.309Z,98475.09
2022-10-21T15:26:14.531Z,98458.75
2022-10-21T15:31:21.466Z,98454.31
2022-10-21T15:36:29.039Z,98453.16
2022-10-21T15:41:34.240Z,98428.66
2022-10-21T15:46:46.287Z,98428.47
2022-10-21T15:51:54.940Z,98415.00
2022-10-21T15:57:02.404Z,98425.28
2022-10-21T16:02:09.474Z,98426.66
2022-10-21T16:07:33.166Z,98424.41
2022-10-21T16:12:38.978Z,98415.94
2022-10-21T16:17:46.758Z,98427.66
2022-10-21T16:22:55.774Z,98443.78
2022-10-21T16:28:02.381Z,98443.41
2022-10-21T16:33:07.409Z,98466.38
2022-10-21T16:38:16.188Z,98469.38
2022-10-21T16:43:21.083Z,98468.91
2022-10-21T16:48:26.032Z,98446.53
2022-10-21T16:53:33.405Z,98448.66
2022-10-21T16:58:38.665Z,98452.16
2022-10-21T17:03:43.542Z,98446.84
2022-10-21T17:08:51.973Z,98452.66
2022-10-21T17:13:57.000Z,98443.19
2022-10-21T17:19:02.038Z,98435.38
2022-10-21T17:24:10.855Z,98442.78
2022-10-21T17:29:16.621Z,98439.38
2022-10-21T17:34:33.449Z,98435.03
2022-10-21T17:39:41.027Z,98435.16
2022-10-21T17:44:45.996Z,98433.72
2022-10-21T17:49:50.863Z,98446.53
2022-10-21T17:54:58.344Z,98449.53
2022-10-21T18:00:03.250Z,98459.56
2022-10-21T18:05:12.294Z,98443.59
2022-10-21T18:10:19.789Z,98444.91
2022-10-21T18:15:27.808Z,98432.69
2022-10-21T18:20:32.665Z,98438.84
2022-10-21T18:25:41.844Z,98438.13
2022-10-21T18:30:46.628Z,98426.50
2022-10-21T18:35:51.977Z,98425.63
2022-10-21T18:41:15.337Z,98413.88
2022-10-21T18:46:24.886Z,98415.16
2022-10-21T18:51:29.760Z,98420.16
2022-10-21T18:56:41.451Z,98414.56
2022-10-21T19:01:46.627Z,98408.44
2022-10-21T19:06:51.945Z,98397.59
2022-10-21T19:12:02.925Z,98399.91
2022-10-21T19:17:10.022Z,98392.69
2022-10-21T19:22:23.640Z,98400.91
2022-10-21T19:27:31.306Z,98404.31
2022-10-21T19:32:36.198Z,98412.31
2022-10-21T19:37:41.058Z,98417.94
2022-10-21T19:42:49.866Z,98421.41
2022-10-21T19:47:56.109Z,98423.66
2022-10-21T19:53:01.063Z,98416.31
2022-10-21T19:58:08.674Z,98430.78
2022-10-21T20:03:14.034Z,98433.00
2022-10-21T20:08:21.249Z,98423.75
2022-10-21T20:13:30.878Z,98427.06
2022-10-21T20:18:35.796Z,98416.41
2022-10-21T20:23:41.492Z,98435.03
2022-10-21T20:28:51.061Z,98429.72
2022-10-21T20:33:58.123Z,98433.47
2022-10-21T20:39:04.610Z,98447.44
2022-10-21T20:44:16.212Z,98432.50
2022-10-21T20:49:21.101Z,98439.31
2022-10-21T20:54:28.228Z,98436.97
2022-10-21T20:59:35.847Z,98419.88
2022-10-21T21:04:40.811Z,98424.50
2022-10-21T21:10:01.795Z,98419.53
2022-10-21T21:15:12.503Z,98430.50
2022-10-21T21:20:17.612Z,98436.78
2022-10-21T21:25:22.389Z,98433.00
2022-10-21T21:30:29.781Z,98437.41
2022-10-21T21:35:34.635Z,98424.09
2022-10-21T21:40:39.407Z,98416.50
2022-10-21T21:45:49.924Z,98422.16
2022-10-21T21:50:55.225Z,98434.94
2022-10-21T21:56:03.718Z,98438.81
2022-10-21T22:01:16.324Z,98444.25
2022-10-21T22:06:22.617Z,98453.81
2022-10-21T22:11:29.829Z,98453.31
2022-10-21T22:16:37.330Z,98439.13
2022-10-21T22:21:42.655Z,98431.28
2022-10-21T22:26:47.625Z,98414.66
2022-10-21T22:31:55.105Z,98426.66
2022-10-21T22:37:02.221Z,98438.88
2022-10-21T22:42:07.257Z,98443.84
2022-10-21T22:47:15.701Z,98423.84
2022-10-21T22:52:22.136Z,98408.53
2022-10-21T22:57:27.079Z,98403.34
2022-10-21T23:02:34.641Z,98405.56
2022-10-21T23:07:39.447Z,98402.09
2022-10-21T23:12:44.331Z,98405.06
2022-10-21T23:17:52.140Z,98400.22
2022-10-21T23:22:57.014Z,98383.94
2022-10-21T23:28:02.161Z,98373.13
2022-10-21T23:33:09.585Z,98380.94
2022-10-21T23:38:14.556Z,98367.28
2022-10-21T23:43:23.003Z,98380.09
2022-10-21T23:48:30.642Z,98391.09
2022-10-21T23:53:35.631Z,98404.97
2022-10-21T23:58:40.565Z,98416.66
